Terminal Aerodrome Forecast
Issued by NWS

Home | Current Version | Previous Version | Text Only | Print | Product List | Glossary Off
Versions: 1 2 3 4 5 6 7 8 9 10 11 12 13 14 15 16 17 18 19 20 21

000
FTUS43 KBIS 241100
TAFJMS
TAF
KJMS 241134Z 2412/2512 28007KT P6SM OVC006
      TEMPO 2412/2415 3SM BR OVC004
     FM241500 21007KT 5SM BR OVC005
      TEMPO 2415/2418 2SM BR OVC004
     FM241800 19010KT P6SM BKN070 OVC100
     FM250200 22010KT P6SM SCT035 BKN050 OVC080
     FM250800 31010KT P6SM BKN020 OVC035=

USA.gov is the U.S. government's official web portal to all federal, state and local government web resources and services.